NIEUW!!! Volg onze weer- en natuurfoto's op Instagram @ weerstationmaaseik.be

WS Maaseik 1 Meer informatie WS Maaseik 1


WS Maaseik 2 Meer informatie WS Maaseik 2


Regen radar Meer informatie rain snow radar


Bezoek onze andere website:

Vorige versie
weerstation Maaseik


Bezoek ook eens deze sites:

Weerstation Geleen



Het weer levert geen direct gevaar op.    Er zijn geen waarschuwingen afgegeven.

METAR rapporten vliegvelden

   
EBBR - Brussels International Airport, Belgium
Afstand tot: W 14 km
Gewijzigd: 20-09-2020 15:50
Helder  
Helder  
   Wind: NO 9.3 km/h
Wind: NO 9.3 km/h
Temperatuur: 25°C
Dauwpunt: 5°C
Vochtigheid: 28%
Barometer: 1016 hPa
Zicht: meer dan 10 km
Bewolking: Helder ft
EBBR 201350Z 05005KT 020V080 CAVOK 25/05 Q1016 NOSIG
EBBE - Beauvechain (Bevekom), Belgium
Afstand tot: ZZO 17 km
Gewijzigd: 20-09-2020 15:55
Helder  
Helder  
   Wind: NO 14.8 km/h
Wind: NO 14.8 km/h
Temperatuur: 24°C
Dauwpunt: 5°C
Vochtigheid: 29%
Barometer: 1016 hPa
Bewolking: Clear
Zicht: meer dan 10 km
Bewolking: Helder ft
EBBE 201355Z AUTO 04008KT 9999 NCD 24/05 Q1016 BLU
EBDT - Schaffen, Belgium
Afstand tot: ONO 29 km
Gewijzigd: 20-09-2020 15:55
Grotendeels bewolkt  
Grotendeels bewolkt  
   Wind: NO 14.8 km/h
Wind: NO 14.8 km/h
Temperatuur: 24°C
Dauwpunt: 7°C
Vochtigheid: 34%
Barometer: 1015 hPa
Bewolking: Mostly Cloudy
Zicht: meer dan 10 km
Bewolking: Licht bewolkt 11000 ft,
Gedeeltelijk bewolkt 16000 ft,
Grotendeels bewolkt 22000 ft
EBDT 201355Z AUTO 04008KT 9999 FEW110/// SCT160/// BKN220/// 24/07 Q1015 BLU
EBAW - Antwerp/Deurne, Belgium
Afstand tot: NNW 38 km
Gewijzigd: 20-09-2020 15:50
Helder  
Helder  
   Wind: NNO 9.3 km/h
Wind: NNO 9.3 km/h
Temperatuur: 25°C
Dauwpunt: 4°C
Vochtigheid: 26%
Barometer: 1016 hPa
Zicht: meer dan 10 km
Bewolking: Helder ft
EBAW 201350Z 03005KT 340V080 CAVOK 25/04 Q1016 NOSIG
EBCI - Charleroi/Gosselies, Belgium
Afstand tot: ZZW 51 km
Gewijzigd: 20-09-2020 15:50
Helder  
Helder  
   Wind: NNO 18.5 km/h
Wind: NNO 18.5 km/h
Temperatuur: 25°C
Dauwpunt: 4°C
Vochtigheid: 26%
Barometer: 1016 hPa
Zicht: meer dan 10 km
Bewolking: Helder ft
EBCI 201350Z 02010KT 350V060 CAVOK 25/04 Q1016 NOSIG
EBLG - Bierset/Liege, Belgium
Afstand tot: OZO 60 km
Gewijzigd: 20-09-2020 15:50
Helder  
Helder  
   Wind: NO 14.8 km/h
Wind: NO 14.8 km/h
Temperatuur: 25°C
Dauwpunt: 7°C
Vochtigheid: 32%
Barometer: 1016 hPa
Zicht: meer dan 10 km
Bewolking: Helder ft
EBLG 201350Z 04008KT CAVOK 25/07 Q1016 NOSIG

Script ontwikkeld door  Saratoga-weather.org Aangepast voor de template door  Weerstation Leuven

U vindt ons ook hier:

Het Weer Aktueel

Weather Underground

AWEKAS